createdAt,value
2022-08-18T00:01:49.183Z,100771.13
2022-08-18T00:04:42.665Z,100778.53
2022-08-18T00:07:37.280Z,100774.97
2022-08-18T00:10:24.953Z,100779.06
2022-08-18T00:13:12.663Z,100763.81
2022-08-18T00:15:59.956Z,100770.72
2022-08-18T00:18:47.074Z,100768.00
2022-08-18T00:21:34.718Z,100758.41
2022-08-18T00:24:21.896Z,100767.06
2022-08-18T00:27:12.520Z,100774.94
2022-08-18T00:30:07.507Z,100774.28
2022-08-18T00:32:57.067Z,100783.34
2022-08-18T00:35:44.104Z,100776.97
2022-08-18T00:38:32.694Z,100781.09
2022-08-18T00:41:21.528Z,100776.31
2022-08-18T00:44:08.830Z,100778.34
2022-08-18T00:46:56.166Z,100775.59
2022-08-18T00:49:46.146Z,100783.00
2022-08-18T00:52:34.082Z,100779.84
2022-08-18T00:55:22.910Z,100785.56
2022-08-18T00:58:16.005Z,100790.94
2022-08-18T01:01:05.977Z,100793.88
2022-08-18T01:04:00.729Z,100802.09
2022-08-18T01:06:58.216Z,100796.09
2022-08-18T01:09:45.378Z,100792.22
2022-08-18T01:12:45.187Z,100787.06
2022-08-18T01:15:34.651Z,100783.88
2022-08-18T01:18:40.430Z,100786.75
2022-08-18T01:21:49.015Z,100787.19
2022-08-18T01:24:56.625Z,100780.41
2022-08-18T01:27:44.083Z,100782.91
2022-08-18T01:30:45.759Z,100780.28
2022-08-18T01:33:38.077Z,100784.41
2022-08-18T01:36:25.451Z,100787.66
2022-08-18T01:39:13.589Z,100803.00
2022-08-18T01:42:01.589Z,100795.75
2022-08-18T01:44:51.454Z,100801.03
2022-08-18T01:47:48.073Z,100799.97
2022-08-18T01:50:45.755Z,100797.56
2022-08-18T01:53:33.443Z,100804.03
2022-08-18T01:56:20.592Z,100809.31
2022-08-18T01:59:14.362Z,100810.50
2022-08-18T02:02:02.185Z,100810.59
2022-08-18T02:04:51.114Z,100814.72
2022-08-18T02:07:38.455Z,100813.09
2022-08-18T02:10:28.308Z,100814.72
2022-08-18T02:13:15.574Z,100828.47
2022-08-18T02:16:05.799Z,100831.31
2022-08-18T02:18:53.622Z,100839.03
2022-08-18T02:21:40.715Z,100843.94
2022-08-18T02:24:27.974Z,100840.75
2022-08-18T02:27:16.785Z,100847.66
2022-08-18T02:30:10.286Z,100840.03
2022-08-18T02:33:01.999Z,100840.91
2022-08-18T02:35:54.928Z,100836.88
2022-08-18T02:38:43.092Z,100841.75
2022-08-18T02:41:31.475Z,100845.75
2022-08-18T02:44:18.507Z,100838.56
2022-08-18T02:47:06.274Z,100839.34
2022-08-18T02:49:53.904Z,100846.28
2022-08-18T02:52:41.505Z,100850.81
2022-08-18T02:55:29.428Z,100848.44
2022-08-18T02:58:16.993Z,100845.69
2022-08-18T03:01:06.801Z,100846.09
2022-08-18T03:03:54.897Z,100838.88
2022-08-18T03:06:45.353Z,100836.53
2022-08-18T03:09:34.541Z,100833.72
2022-08-18T03:12:21.707Z,100844.63
2022-08-18T03:15:09.163Z,100846.22
2022-08-18T03:17:56.521Z,100845.00
2022-08-18T03:20:46.907Z,100854.31
2022-08-18T03:23:34.369Z,100855.53
2022-08-18T03:26:23.321Z,100858.00
2022-08-18T03:29:11.502Z,100850.31
2022-08-18T03:31:58.960Z,100854.25
2022-08-18T03:34:46.265Z,100846.53
2022-08-18T03:37:33.690Z,100853.78
2022-08-18T03:40:20.783Z,100845.75
2022-08-18T03:43:33.427Z,100850.28
2022-08-18T03:46:17.534Z,100853.56
2022-08-18T03:49:04.723Z,100853.66
2022-08-18T03:51:51.891Z,100851.25
2022-08-18T03:54:39.845Z,100841.63
2022-08-18T03:57:26.810Z,100848.50
2022-08-18T04:00:14.475Z,100854.56
2022-08-18T04:03:03.045Z,100852.97
2022-08-18T04:05:50.041Z,100863.50
2022-08-18T04:08:37.072Z,100853.06
2022-08-18T04:11:25.265Z,100852.25
2022-08-18T04:14:15.942Z,100857.13
2022-08-18T04:17:03.342Z,100865.22
2022-08-18T04:19:54.609Z,100867.28
2022-08-18T04:22:41.963Z,100862.13
2022-08-18T04:25:32.885Z,100866.53
2022-08-18T04:28:20.290Z,100877.78
2022-08-18T04:31:10.548Z,100879.75
2022-08-18T04:33:59.793Z,100879.75
2022-08-18T04:36:47.072Z,100891.84
2022-08-18T04:39:34.341Z,100889.78
2022-08-18T04:42:21.365Z,100905.50
2022-08-18T04:45:08.677Z,100916.00
2022-08-18T04:48:08.393Z,100916.00
2022-08-18T04:51:06.206Z,100918.81
2022-08-18T04:53:58.168Z,100916.00
2022-08-18T04:56:45.292Z,100918.00
2022-08-18T04:59:32.311Z,100933.22
2022-08-18T05:02:21.589Z,100937.66
2022-08-18T05:05:13.111Z,100944.06
2022-08-18T05:08:00.208Z,100949.59
2022-08-18T05:10:52.359Z,100943.13
2022-08-18T05:13:39.584Z,100936.63
2022-08-18T05:16:32.042Z,100941.44
2022-08-18T05:19:25.995Z,100945.50
2022-08-18T05:22:22.738Z,100947.09
2022-08-18T05:25:17.614Z,100935.34
2022-08-18T05:28:07.547Z,100944.53
2022-08-18T05:30:54.610Z,100937.09
2022-08-18T05:33:43.921Z,100942.63
2022-08-18T05:36:59.140Z,100945.69
2022-08-18T05:39:54.946Z,100952.53
2022-08-18T05:42:43.028Z,100950.44
2022-08-18T05:45:30.125Z,100953.72
2022-08-18T05:48:17.791Z,100952.09
2022-08-18T05:51:16.194Z,100950.06
2022-08-18T05:54:23.339Z,100942.41
2022-08-18T05:57:16.495Z,100947.22
2022-08-18T06:00:06.374Z,100953.59
2022-08-18T06:03:19.946Z,100944.91
2022-08-18T06:06:14.400Z,100944.41
2022-08-18T06:09:24.068Z,100928.28
2022-08-18T06:12:20.089Z,100937.78
2022-08-18T06:15:25.438Z,100951.25
2022-08-18T06:18:33.663Z,100941.78
2022-08-18T06:21:39.444Z,100941.97
2022-08-18T06:24:51.619Z,100938.53
2022-08-18T06:28:05.846Z,100946.94
2022-08-18T06:31:09.564Z,100933.53
2022-08-18T06:34:20.899Z,100934.44
2022-08-18T06:37:35.241Z,100940.59
2022-08-18T06:40:22.599Z,100938.34
2022-08-18T06:43:15.965Z,100940.50
2022-08-18T06:46:11.951Z,100944.91
2022-08-18T06:49:05.833Z,100949.09
2022-08-18T06:51:53.104Z,100951.16
2022-08-18T06:54:42.809Z,100952.69
2022-08-18T06:57:52.595Z,100972.53
2022-08-18T07:01:03.518Z,100966.78
2022-08-18T07:03:56.356Z,100961.34
2022-08-18T07:06:43.795Z,100971.44
2022-08-18T07:09:34.385Z,100973.75
2022-08-18T07:12:30.503Z,100969.50
2022-08-18T07:15:24.798Z,100970.63
2022-08-18T07:18:13.195Z,100980.66
2022-08-18T07:21:01.585Z,100973.94
2022-08-18T07:24:23.607Z,100971.97
2022-08-18T07:27:15.512Z,100976.34
2022-08-18T07:30:04.134Z,100975.53
2022-08-18T07:32:54.753Z,100979.03
2022-08-18T07:35:56.617Z,100982.47
2022-08-18T07:38:54.755Z,100980.50
2022-08-18T07:41:52.883Z,100985.69
2022-08-18T07:45:09.286Z,100986.56
2022-08-18T07:48:20.803Z,100995.28
2022-08-18T07:51:24.203Z,100998.81
2022-08-18T07:54:49.082Z,101003.81
2022-08-18T07:58:12.712Z,100994.94
2022-08-18T08:01:18.770Z,100995.97
2022-08-18T08:04:39.815Z,100996.06
2022-08-18T08:07:32.282Z,101002.94
2022-08-18T08:10:31.761Z,101012.88
2022-08-18T08:13:54.551Z,101005.56
2022-08-18T08:16:50.733Z,101002.34
2022-08-18T08:20:10.701Z,101010.66
2022-08-18T08:22:58.333Z,101010.09
2022-08-18T08:26:00.852Z,101014.66
2022-08-18T08:29:10.030Z,101006.97
2022-08-18T08:32:17.259Z,101009.06
2022-08-18T08:35:16.230Z,101007.13
2022-08-18T08:38:43.044Z,101004.06
2022-08-18T08:41:42.946Z,100997.84
2022-08-18T08:44:35.142Z,101000.19
2022-08-18T08:47:28.659Z,101005.31
2022-08-18T08:50:24.974Z,101007.28
2022-08-18T08:53:36.086Z,101006.56
2022-08-18T08:56:30.237Z,101003.56
2022-08-18T08:59:21.964Z,100999.03
2022-08-18T09:02:48.278Z,101013.03
2022-08-18T09:05:41.871Z,101015.31
2022-08-18T09:08:40.460Z,101015.63
2022-08-18T09:12:02.412Z,101010.22
2022-08-18T09:15:01.628Z,101008.47
2022-08-18T09:17:49.948Z,101001.88
2022-08-18T09:20:52.177Z,101024.19
2022-08-18T09:23:50.667Z,101020.75
2022-08-18T09:26:47.206Z,101027.38
2022-08-18T09:29:46.490Z,101006.81
2022-08-18T09:32:53.092Z,100996.88
2022-08-18T09:36:25.986Z,101011.19
2022-08-18T09:39:54.573Z,101000.19
2022-08-18T09:43:14.474Z,101011.06
2022-08-18T09:46:12.421Z,101008.88
2022-08-18T09:49:31.051Z,101013.75
2022-08-18T09:52:26.934Z,101015.97
2022-08-18T09:55:18.118Z,101018.69
2022-08-18T09:58:18.603Z,101021.16
2022-08-18T10:01:19.479Z,101033.28
2022-08-18T10:04:15.353Z,101040.09
2022-08-18T10:07:43.540Z,101040.78
2022-08-18T10:11:02.570Z,101029.72
2022-08-18T10:14:47.023Z,101022.13
2022-08-18T10:17:58.493Z,101028.47
2022-08-18T10:20:55.514Z,101030.97
2022-08-18T10:24:08.108Z,101025.63
2022-08-18T10:27:00.247Z,101034.94
2022-08-18T10:29:51.049Z,101031.34
2022-08-18T10:32:44.135Z,101030.06
2022-08-18T10:35:37.905Z,101023.56
2022-08-18T10:38:39.215Z,101032.44
2022-08-18T10:41:30.975Z,101048.22
2022-08-18T10:44:29.107Z,101029.97
2022-08-18T10:47:24.793Z,101013.88
2022-08-18T10:50:22.417Z,101032.66
2022-08-18T10:56:40.710Z,101053.63
2022-08-18T10:59:58.394Z,101035.09
2022-08-18T11:06:26.284Z,101023.59
2022-08-18T11:09:13.820Z,101027.47
2022-08-18T11:12:03.338Z,101025.88
2022-08-18T11:15:22.444Z,101015.94
2022-08-18T11:18:13.554Z,101017.47
2022-08-18T11:21:55.083Z,101012.13
2022-08-18T11:24:44.960Z,101010.22
2022-08-18T11:27:37.783Z,100991.13
2022-08-18T11:30:37.033Z,100997.94
2022-08-18T11:33:24.356Z,101004.56
2022-08-18T11:36:11.855Z,100997.56
2022-08-18T11:38:59.359Z,101022.13
2022-08-18T11:41:50.287Z,101011.78
2022-08-18T11:44:38.910Z,101028.19
2022-08-18T11:47:28.056Z,101004.66
2022-08-18T11:50:27.721Z,100991.19
2022-08-18T11:53:25.956Z,100994.94
2022-08-18T11:56:18.055Z,100982.78
2022-08-18T11:59:08.355Z,100987.06
2022-08-18T12:01:56.511Z,100958.34
2022-08-18T12:04:50.528Z,100956.22
2022-08-18T12:07:57.017Z,100949.72
2022-08-18T12:10:46.085Z,100948.91
2022-08-18T12:13:38.142Z,100940.75
2022-08-18T12:16:37.201Z,100952.88
2022-08-18T12:19:25.321Z,100944.66
2022-08-18T12:22:18.728Z,100953.00
2022-08-18T12:25:12.155Z,100950.59
2022-08-18T12:27:59.479Z,100935.59
2022-08-18T12:30:46.823Z,100930.81
2022-08-18T12:33:48.364Z,100930.78
2022-08-18T12:36:42.665Z,100927.13
2022-08-18T12:39:31.384Z,100941.06
2022-08-18T12:42:20.148Z,100937.22
2022-08-18T12:45:07.727Z,100931.34
2022-08-18T12:47:56.021Z,100916.94
2022-08-18T12:50:53.945Z,100915.56
2022-08-18T12:53:59.380Z,100899.03
2022-08-18T12:56:50.431Z,100882.59
2022-08-18T12:59:37.672Z,100896.41
2022-08-18T13:02:24.846Z,100877.38
2022-08-18T13:05:12.678Z,100864.22
2022-08-18T13:08:04.356Z,100855.50
2022-08-18T13:10:51.883Z,100861.03
2022-08-18T13:13:45.258Z,100872.91
2022-08-18T13:16:53.720Z,100867.00
2022-08-18T13:19:42.277Z,100868.06
2022-08-18T13:22:32.009Z,100891.94
2022-08-18T13:25:33.203Z,100877.66
2022-08-18T13:28:26.903Z,100881.56
2022-08-18T13:31:17.612Z,100875.56
2022-08-18T13:34:11.619Z,100869.50
2022-08-18T13:37:02.252Z,100876.06
2022-08-18T13:39:49.657Z,100885.91
2022-08-18T13:42:57.861Z,100882.06
2022-08-18T13:45:52.659Z,100877.28
2022-08-18T13:48:41.717Z,100887.34
2022-08-18T13:51:29.346Z,100875.16
2022-08-18T13:54:31.257Z,100877.84
2022-08-18T13:57:19.758Z,100865.75
2022-08-18T14:00:18.167Z,100882.59
2022-08-18T14:03:08.279Z,100882.97
2022-08-18T14:06:01.636Z,100855.66
2022-08-18T14:08:49.720Z,100867.00
2022-08-18T14:11:37.982Z,100858.03
2022-08-18T14:14:28.961Z,100876.28
2022-08-18T14:17:17.743Z,100868.81
2022-08-18T14:20:27.494Z,100864.34
2022-08-18T14:23:33.610Z,100871.53
2022-08-18T14:26:38.975Z,100860.88
2022-08-18T14:29:46.717Z,100858.50
2022-08-18T14:32:36.370Z,100848.41
2022-08-18T14:35:33.165Z,100838.13
2022-08-18T14:38:21.714Z,100850.63
2022-08-18T14:41:13.877Z,100832.09
2022-08-18T14:44:12.484Z,100842.00
2022-08-18T14:47:00.830Z,100846.84
2022-08-18T14:49:48.286Z,100832.06
2022-08-18T14:52:35.249Z,100832.59
2022-08-18T14:55:23.915Z,100826.06
2022-08-18T14:58:11.454Z,100831.78
2022-08-18T15:01:02.056Z,100801.91
2022-08-18T15:03:55.910Z,100819.28
2022-08-18T15:06:43.514Z,100813.75
2022-08-18T15:09:43.978Z,100814.00
2022-08-18T15:12:31.205Z,100822.31
2022-08-18T15:15:19.086Z,100821.28
2022-08-18T15:18:10.705Z,100821.53
2022-08-18T15:21:34.885Z,100813.72
2022-08-18T15:24:41.533Z,100824.78
2022-08-18T15:27:42.411Z,100835.19
2022-08-18T15:30:30.102Z,100825.69
2022-08-18T15:33:18.296Z,100831.41
2022-08-18T15:36:10.702Z,100837.00
2022-08-18T15:39:05.741Z,100829.31
2022-08-18T15:41:56.110Z,100829.63
2022-08-18T15:44:44.788Z,100827.84
2022-08-18T15:47:35.132Z,100841.78
2022-08-18T15:50:34.773Z,100840.16
2022-08-18T15:53:29.945Z,100859.25
2022-08-18T15:56:22.529Z,100845.84
2022-08-18T15:59:12.890Z,100825.09
2022-08-18T16:02:01.064Z,100827.16
2022-08-18T16:04:48.099Z,100816.63
2022-08-18T16:07:41.185Z,100819.41
2022-08-18T16:10:33.704Z,100818.41
2022-08-18T16:13:22.185Z,100826.91
2022-08-18T16:16:12.053Z,100820.41
2022-08-18T16:18:59.007Z,100816.41
2022-08-18T16:21:46.486Z,100816.41
2022-08-18T16:24:33.614Z,100812.84
2022-08-18T16:27:20.704Z,100824.16
2022-08-18T16:30:09.903Z,100811.66
2022-08-18T16:33:02.888Z,100820.19
2022-08-18T16:35:51.599Z,100817.13
2022-08-18T16:38:39.023Z,100813.56
2022-08-18T16:41:26.795Z,100813.75
2022-08-18T16:44:16.087Z,100823.00
2022-08-18T16:47:04.937Z,100814.09
2022-08-18T16:49:52.881Z,100810.84
2022-08-18T16:52:45.702Z,100810.09
2022-08-18T16:55:32.810Z,100808.00
2022-08-18T16:58:38.101Z,100804.25
2022-08-18T17:01:49.051Z,100804.38
2022-08-18T17:04:36.502Z,100800.00
2022-08-18T17:07:23.491Z,100801.56
2022-08-18T17:10:10.746Z,100792.66
2022-08-18T17:12:57.724Z,100795.13
2022-08-18T17:15:49.759Z,100788.25
2022-08-18T17:18:37.778Z,100792.66
2022-08-18T17:21:27.366Z,100796.31
2022-08-18T17:24:14.802Z,100786.03
2022-08-18T17:27:27.003Z,100782.97
2022-08-18T17:30:18.775Z,100791.03
2022-08-18T17:33:13.097Z,100789.00
2022-08-18T17:36:06.940Z,100782.22
2022-08-18T17:39:03.632Z,100781.75
2022-08-18T17:42:09.430Z,100787.84
2022-08-18T17:45:00.438Z,100774.81
2022-08-18T17:48:08.771Z,100784.25
2022-08-18T17:51:34.236Z,100799.09
2022-08-18T17:54:42.048Z,100796.22
2022-08-18T17:57:32.621Z,100799.09
2022-08-18T18:00:21.433Z,100809.94
2022-08-18T18:03:10.702Z,100813.13
2022-08-18T18:06:08.816Z,100809.13
2022-08-18T18:09:02.371Z,100820.44
2022-08-18T18:11:49.301Z,100822.34
2022-08-18T18:14:39.535Z,100820.91
2022-08-18T18:17:28.723Z,100836.34
2022-08-18T18:20:32.909Z,100835.34
2022-08-18T18:23:22.954Z,100835.81
2022-08-18T18:26:34.068Z,100828.94
2022-08-18T18:29:32.328Z,100832.09
2022-08-18T18:32:38.471Z,100839.97
2022-08-18T18:35:28.562Z,100842.16
2022-08-18T18:38:29.619Z,100841.50
2022-08-18T18:41:27.796Z,100849.34
2022-08-18T18:44:16.254Z,100848.22
2022-08-18T18:47:31.186Z,100845.13
2022-08-18T18:50:55.795Z,100847.59
2022-08-18T18:54:13.223Z,100848.75
2022-08-18T18:57:00.715Z,100846.22
2022-08-18T19:00:09.930Z,100857.47
2022-08-18T19:02:56.870Z,100858.06
2022-08-18T19:05:57.551Z,100862.44
2022-08-18T19:09:03.322Z,100857.38
2022-08-18T19:12:18.841Z,100860.59
2022-08-18T19:15:16.794Z,100862.03
2022-08-18T19:18:10.682Z,100871.28
2022-08-18T19:22:04.855Z,100870.25
2022-08-18T19:24:22.133Z,100870.91
2022-08-18T19:27:23.630Z,100878.78
2022-08-18T19:30:15.280Z,100879.25
2022-08-18T19:33:04.626Z,100879.94
2022-08-18T19:36:07.501Z,100881.41
2022-08-18T19:39:11.997Z,100880.16
2022-08-18T19:42:03.398Z,100885.91
2022-08-18T19:45:15.819Z,100885.66
2022-08-18T19:48:17.605Z,100878.91
2022-08-18T19:51:16.047Z,100886.03
2022-08-18T19:54:04.301Z,100877.16
2022-08-18T19:57:10.054Z,100878.72
2022-08-18T20:00:38.931Z,100875.78
2022-08-18T20:03:52.748Z,100877.66
2022-08-18T20:07:15.871Z,100881.91
2022-08-18T20:10:28.590Z,100873.81
2022-08-18T20:13:33.101Z,100876.06
2022-08-18T20:16:44.224Z,100868.16
2022-08-18T20:19:41.810Z,100876.97
2022-08-18T20:22:32.898Z,100873.41
2022-08-18T20:25:43.758Z,100887.81
2022-08-18T20:28:37.693Z,100887.09
2022-08-18T20:31:45.195Z,100887.44
2022-08-18T20:34:35.295Z,100890.28
2022-08-18T20:37:29.036Z,100892.75
2022-08-18T20:40:49.657Z,100901.44
2022-08-18T20:43:38.906Z,100897.34
2022-08-18T20:46:47.926Z,100903.91
2022-08-18T20:49:55.675Z,100902.84
2022-08-18T20:53:01.653Z,100904.88
2022-08-18T20:55:57.184Z,100904.16
2022-08-18T20:59:04.024Z,100904.41
2022-08-18T21:02:06.274Z,100903.84
2022-08-18T21:04:57.201Z,100907.75
2022-08-18T21:08:04.979Z,100903.44
2022-08-18T21:10:54.928Z,100900.13
2022-08-18T21:13:41.937Z,100908.06
2022-08-18T21:16:42.089Z,100909.66
2022-08-18T21:19:29.456Z,100913.81
2022-08-18T21:22:19.556Z,100918.34
2022-08-18T21:25:12.340Z,100912.22
2022-08-18T21:28:02.339Z,100924.38
2022-08-18T21:31:42.574Z,100930.63
2022-08-18T21:34:08.703Z,100929.44
2022-08-18T21:36:58.632Z,100923.50
2022-08-18T21:39:58.603Z,100922.03
2022-08-18T21:42:46.086Z,100922.56
2022-08-18T21:45:48.462Z,100920.00
2022-08-18T21:48:46.833Z,100922.72
2022-08-18T21:51:46.010Z,100926.41
2022-08-18T21:54:34.757Z,100922.56
2022-08-18T21:57:27.849Z,100921.41
2022-08-18T22:00:19.062Z,100918.41
2022-08-18T22:03:09.102Z,100923.94
2022-08-18T22:06:13.929Z,100923.63
2022-08-18T22:09:33.526Z,100924.16
2022-08-18T22:12:49.128Z,100932.72
2022-08-18T22:15:42.669Z,100946.97
2022-08-18T22:18:36.666Z,100947.09
2022-08-18T22:21:38.042Z,100956.16
2022-08-18T22:24:38.732Z,100945.06
2022-08-18T22:27:27.113Z,100944.38
2022-08-18T22:30:14.122Z,100936.19
2022-08-18T22:33:01.114Z,100927.53
2022-08-18T22:35:57.737Z,100922.63
2022-08-18T22:38:45.853Z,100913.50
2022-08-18T22:41:34.170Z,100921.22
2022-08-18T22:44:21.374Z,100918.13
2022-08-18T22:47:09.315Z,100922.56
2022-08-18T22:49:56.311Z,100910.28
2022-08-18T22:52:48.356Z,100916.88
2022-08-18T22:55:35.554Z,100931.88
2022-08-18T22:58:28.221Z,100927.34
2022-08-18T23:01:15.600Z,100917.00
2022-08-18T23:04:03.206Z,100918.59
2022-08-18T23:06:53.759Z,100928.81
2022-08-18T23:09:40.974Z,100940.22
2022-08-18T23:12:28.098Z,100937.59
2022-08-18T23:15:17.122Z,100928.03
2022-08-18T23:18:04.179Z,100934.31
2022-08-18T23:20:57.559Z,100922.34
2022-08-18T23:23:44.931Z,100935.28
2022-08-18T23:26:32.377Z,100944.22
2022-08-18T23:29:20.866Z,100944.09
2022-08-18T23:32:08.023Z,100949.06
2022-08-18T23:34:55.897Z,100944.28
2022-08-18T23:37:42.918Z,100960.41
2022-08-18T23:40:30.697Z,100963.63
2022-08-18T23:43:20.197Z,100962.88
2022-08-18T23:46:19.418Z,100960.84
2022-08-18T23:49:10.674Z,100960.47
2022-08-18T23:51:59.178Z,100954.16
2022-08-18T23:54:46.218Z,100955.75
2022-08-18T23:57:33.277Z,100961.47
